WEATHER DATA

AHIR
Time Temperatura Punt de Rosada Humitat Direcció Velocitat Wind gust Pressió 1h Prec. 24h Prec.
00:05 -0.2 -0.7 96 232 2.8 3.3 1003.5 0.0000 0.0000
00:15 -0.5 -1 96 230 2.8 3.6 1003.6 0.0000 0.0000
00:25 -0.7 -1.2 96 229 2.8 3.6 1003.7 0.0000 0.0000
00:35 -0.9 -1.4 96 229 2.8 3.3 1003.7 0.0000 0.0000
00:46 -1 -1.5 96 231 2.8 3.6 1003.9 0.0000 0.0000
00:56 -1 -1.5 96 230 2.5 3.6 1003.9 0.0000 0.0000
01:06 -1.3 -1.8 96 233 2.5 3.3 1004 0.0000 0.0000
01:16 -1.4 -1.9 96 229 2.5 3.3 1004.1 0.0000 0.0000
01:26 -1.5 -2 96 232 2.8 3.3 1004.2 0.0000 0.0000
01:36 -1.7 -2.2 96 230 2.8 3.6 1004.2 0.0000 0.0000
01:46 -1.9 -2.4 96 231 2.5 3.3 1004.3 0.0000 0.0000
01:57 -2 -2.5 96 229 2.8 3.6 1004.3 0.0000 0.0000
02:06 -2.2 -2.7 96 230 2.5 3.1 1004.5 0.0000 0.0000
02:16 -2.2 -2.7 96 233 2.5 3.3 1004.6 0.0000 0.0000
02:26 -2.1 -2.5 97 232 2.5 3.3 1004.8 0.0000 0.0000
02:37 -2.1 -2.5 97 232 2.5 3.1 1005.1 0.0000 0.0000
02:47 -2.1 -2.6 96 231 2.5 3.1 1005.2 0.0000 0.0000
02:56 -2.2 -2.7 96 232 2.5 3.3 1005.2 0.0000 0.0000
03:07 -2.2 -2.7 96 232 1.9 3.1 1005.2 0.0000 0.0000
03:32 -2.4 -2.9 96 232 2.5 3.3 1005.2 0.0000 0.0000
03:42 -2.5 -3 96 232 2.5 3.1 1005.6 0.0000 0.0000
03:52 -2.6 -3.1 96 230 2.5 3.3 1005.5 0.0000 0.0000
04:02 -2.6 -3.1 96 229 2.5 3.1 1005.6 0.0000 0.0000
04:12 -2.6 -3.1 96 230 2.5 3.1 1005.7 0.0000 0.0000
04:23 -2.7 -3.2 96 229 1.9 3.3 1005.8 0.0000 0.0000
04:32 -2.7 -3.2 96 229 2.5 3.1 1005.9 0.0000 0.0000
04:42 -2.7 -3.2 96 231 2.5 3.1 1006.2 0.0000 0.0000
04:53 -2.6 -3.1 96 232 2.5 3.1 1006.2 0.0000 0.0000
05:03 -2.6 -3.1 96 231 2.5 3.1 1006.5 0.0000 0.0000
05:13 -2.5 -2.9 97 230 2.5 3.1 1006.5 0.0000 0.0000
05:22 -2.3 -2.7 97 231 2.5 3.1 1006.7 0.0000 0.0000
05:33 -2.2 -2.6 97 234 1.9 3.1 1006.8 0.0000 0.0000
05:43 -2 -2.4 97 234 2.5 2.8 1007.1 0.0000 0.0000
05:53 -1.9 -2.3 97 231 1.9 3.1 1007.1 0.0000 0.0000
06:03 -1.8 -2.2 97 231 2.5 3.1 1007.3 0.0000 0.0000
06:14 -1.6 -2 97 230 1.9 3.1 1007.4 0.0000 0.0000
06:23 -1.6 -2 97 233 2.5 3.1 1007.4 0.0000 0.0000
06:33 -1.7 -2.1 97 234 1.9 3.1 1007.5 0.0000 0.0000
06:44 -1.7 -2.1 97 231 2.5 3.1 1007.7 0.0000 0.0000
06:54 -1.7 -2.1 97 230 2.5 3.1 1007.9 0.0000 0.0000
07:04 -1.6 -2 97 229 1.9 3.1 1008.1 0.0000 0.0000
07:14 -1.5 -1.9 97 227 1.9 3.1 1008.3 0.0000 0.0000
07:24 -1.3 -1.7 97 230 2.5 3.1 1008.4 0.0000 0.0000
07:34 -1.2 -1.4 98 226 1.9 2.8 1008.8 0.0000 0.0000
07:44 -1.1 -1.3 98 231 1.9 3.1 1008.8 0.0000 0.0000
07:55 -1.1 -1.5 97 234 1.9 3.1 1008.9 0.0000 0.0000
08:04 -1.2 -1.6 97 234 2.5 3.3 1009.2 0.0000 0.0000
08:14 -1.2 -1.6 97 233 2.5 3.3 1009.3 0.0000 0.0000
08:24 -1.2 -1.6 97 228 2.5 3.3 1009.3 0.0000 0.0000
08:35 -1.1 -1.5 97 226 1.9 3.1 1009.4 0.0000 0.0000
08:45 -1.1 -1.5 97 227 2.5 3.1 1009.6 0.0000 0.0000
08:54 -1 -1.4 97 228 2.5 3.3 1009.6 0.0000 0.0000
09:05 -0.9 -1.3 97 231 2.5 3.3 1009.7 0.0000 0.0000
09:15 -0.9 -1.3 97 231 2.5 3.1 1009.6 0.0000 0.0000
09:25 -0.8 -1.2 97 231 2.5 3.6 1009.9 0.0000 0.0000
09:35 -0.6 -0.8 98 225 2.8 3.6 1010 0.0000 0.0000
09:45 -0.4 -0.6 98 223 2.8 4.2 1010 0.0000 0.0000
09:55 -0.1 -0.3 98 221 2.8 4.2 1009.9 0.0000 0.0000
10:05 -0.1 -0.3 98 222 2.8 4.2 1010 0.0000 0.0000
10:16 0 -0.2 98 222 2.8 4.2 1010 0.0000 0.0000
10:26 0.2 -0.1 98 225 3.1 4.2 1010.1 0.0000 0.0000
10:35 0.4 0.1 98 226 2.8 3.6 1010.4 0.0000 0.0000
10:45 0.8 0.5 98 228 2.5 3.3 1010.3 0.1010 0.1000
10:56 1.1 1 99 229 2.8 3.6 1010.3 0.1010 0.1000
11:06 1.4 1.1 98 228 2.8 4.2 1010.2 0.1010 0.1000
11:16 1.6 1.3 98 231 2.8 4.2 1010.3 0.1010 0.1000
11:26 1.8 1.5 98 230 3.1 3.6 1010.1 0.1010 0.1000
11:36 2.2 1.9 98 231 3.1 4.2 1010.1 0.0000 0.1000
11:46 2.6 2.5 99 232 3.3 5 1009.9 0.0000 0.1000
11:56 3 2.9 99 233 2.5 4.2 1009.9 0.0000 0.1000
12:07 3.3 3.2 99 241 1.9 3.6 1009.6 0.0000 0.1000
12:17 3.8 3.7 99 243 1.7 2.8 1009.8 0.0000 0.1000
12:26 4.1 3.8 98 251 1.1 2.8 1009.7 0.0000 0.1000
12:36 4.7 4.6 99 253 0.6 1.4 1009.8 0.0000 0.1000
12:47 4.9 4.6 98 270 0.6 1.7 1009.8 0.0000 0.1000
12:57 4.6 4 96 258 1.1 1.9 1009.8 0.0000 0.1000
13:07 4.3 3.6 95 270 1.1 2.8 1009.9 0.0000 0.1000
13:17 4.1 3.4 95 270 1.1 1.7 1009.8 0.0000 0.1000
13:27 3.9 3.2 95 244 1.1 2.8 1009.6 0.0000 0.1000
13:37 3.6 2.9 95 231 1.1 1.9 1009.4 0.0000 0.1000
13:47 3.6 2.9 95 229 1.1 1.7 1009.4 0.0000 0.1000
13:58 3.6 2.9 95 255 1.1 2.5 1009.4 0.0000 0.1000
14:07 3.6 2.9 95 246 0.6 1.7 1009.3 0.0000 0.1000
14:17 3.6 2.9 95 247 1.4 2.5 1009.2 0.0000 0.1000
14:28 3.5 2.6 94 240 1.4 1.9 1009.1 0.0000 0.1000
14:38 3.5 2.6 94 236 1.1 1.7 1009 0.0000 0.1000
14:48 3.4 2.5 94 242 1.1 1.9 1009 0.0000 0.1000
14:57 3.5 2.6 94 230 0.6 1.7 1009.1 0.0000 0.1000
15:08 3.4 2.5 94 231 1.1 1.7 1009 0.0000 0.1000
15:18 3.4 2.5 94 236 0.6 1.9 1008.9 0.0000 0.1000
15:28 3.4 2.5 94 233 1.1 1.7 1009 0.0000 0.1000
15:38 3.4 2.5 94 237 0.6 1.7 1009 0.0000 0.1000
15:49 3.3 2.4 94 230 1.1 1.9 1009 0.0000 0.1000
15:58 3.2 2.3 94 233 1.1 1.7 1009 0.0000 0.1000
16:08 3.1 2.2 94 220 0.6 1.9 1008.9 0.0000 0.1000
16:19 3 2.1 94 232 1.1 1.9 1008.8 0.0000 0.1000
16:29 2.9 2 94 237 1.1 2.5 1008.8 0.0000 0.1000
16:39 2.8 1.9 94 227 1.1 1.9 1008.6 0.0000 0.1000
16:49 2.7 1.8 94 228 1.1 1.7 1008.3 0.0000 0.1000
16:59 2.5 1.6 94 226 1.4 3.1 1008.2 0.0000 0.1000
17:09 2.4 1.5 94 221 1.7 2.8 1008.1 0.0000 0.1000
17:19 2.1 1.2 94 229 2.5 3.1 1008 0.0000 0.1000
17:30 1.9 1 94 229 1.9 2.8 1007.8 0.0000 0.1000
17:39 1.6 0.7 94 229 1.9 3.1 1007.9 0.0000 0.1000
17:49 1.4 0.5 94 236 2.5 3.3 1008 0.0000 0.1000
17:59 1.2 0.3 94 239 2.5 3.1 1007.9 0.0000 0.1000
18:10 1.1 0.4 95 237 2.5 3.1 1007.7 0.0000 0.1000
18:20 1.1 0.4 95 236 1.9 3.1 1007.6 0.0000 0.1000
18:30 1.1 0.4 95 236 1.9 3.1 1007.5 0.0000 0.1000
18:40 1 0.3 95 239 1.9 3.1 1007.5 0.0000 0.1000
18:51 1 0.3 95 238 1.9 3.1 1007.4 0.0000 0.1000
19:00 0.9 0.2 95 238 1.9 3.1 1007.3 0.0000 0.1000
19:10 0.8 0.1 95 238 1.9 3.1 1007.4 0.0000 0.1000
19:21 0.9 0.2 95 239 1.9 3.1 1007.5 0.0000 0.1000
19:31 0.9 0.2 95 239 1.9 2.8 1007.4 0.0000 0.1000
19:41 0.9 0.2 95 237 1.9 2.8 1007.4 0.0000 0.1000
19:51 0.8 0.1 95 240 1.9 3.1 1007.2 0.0000 0.1000
20:01 0.8 0.1 95 237 1.7 2.8 1007.2 0.0000 0.1000
20:11 0.8 0.1 95 240 1.9 2.8 1007.1 0.0000 0.1000
20:21 0.8 0.1 95 237 1.7 2.5 1007.1 0.0000 0.1000
20:32 0.7 0 95 237 1.7 3.1 1007 0.0000 0.1000
20:41 0.6 -0.1 95 237 1.7 2.5 1006.8 0.0000 0.1000
20:51 0.5 -0.2 95 234 1.7 2.5 1006.5 0.0000 0.1000
21:01 0.4 -0.3 95 237 1.7 2.5 1006.2 0.0000 0.1000
21:12 0.3 -0.4 95 238 1.7 2.8 1006.1 0.0000 0.1000
21:15 0.3 -0.4 95 239 1.7 3.1 1006.1 0.0000 0.1000
21:25 0.4 -0.3 95 235 1.7 2.5 1005.9 0.0000 0.1000
21:36 0.4 -0.3 95 217 1.4 1.9 1005.8 0.0000 0.1000
21:48 0.3 -0.4 95 229 1.1 2.5 1005.4 0.0000 0.1000
21:58 0.4 -0.3 95 239 0.3 1.1 1005.1 0.0000 0.1000
22:08 0.4 -0.3 95 234 0.3 0.6 1004.9 0.0000 0.1000
22:18 0.5 -0.2 95 219 0.3 0.6 1004.7 0.0000 0.1000
22:29 0.5 -0.2 95 225 0.3 1.1 1004.6 0.0000 0.1000
22:38 0.6 -0.1 95 208 0.3 0.6 1004.6 0.0000 0.1000
22:48 0.6 -0.1 95 231 0.3 1.1 1004.3 0.0000 0.1000
22:58 0.6 -0.1 95 225 0.3 0.6 1004 0.0000 0.1000
23:09 0.7 0 95 234 0.6 1.4 1004.2 0.0000 0.1000
23:19 0.7 0 95 245 1.1 2.8 1004.1 0.0000 0.1000
23:28 0.8 0.1 95 242 1.1 1.7 1004.2 0.0000 0.1000
23:39 0.9 0.2 95 238 1.1 2.8 1004.1 0.0000 0.1000
23:49 1 0.3 95 233 1.7 3.1 1004 0.0000 0.1000

DAY STATISTIC

2021-12-06
TEMPERATURA
MITJANA
0.4
ALT
4.9
12:47
BAIX
-2.7
04:23
PRESSIÓ
MITJANA
1007.4
ALT
1010.4
10:35
BAIX
1003.5
00:05
PUNT DE ROSADA
MITJANA
-0.1
ALT
4.6
12:36
BAIX
-3.2
04:23
HUMITAT
MITJANA
96
ALT
99
10:56
BAIX
94
14:28
VELOCITAT DEL VENT
MITJANA
1.9
ALT
3.3
11:46
WIND GUST
MITJANA
2.8
ALT
5.0
11:46
DIRECCIÓ DEL VENT
PREDOMINANT
SW
95%
N
0.0
NE
0.0
E
0.0
SE
0.0
S
0.0
SW
95.0
W
5.0
NW
0.0
PRECIPITACIÓ
PLUJA PER HORA
0.1
PUJA PER DIA
0.1
TEMPERATURA (°C)
BAIX
-2.7
ALT
4.9
MITJANA
0.4
PRESSIÓ (hpa)
BAIX
1003.5
ALT
1010.4
MITJANA
1007.4
DEVICE